Time;durP1;ratioP1;P1;durP2;ratioP2;P2;SDS_P1;SDS_P2;PMS_P1;PMS_P2;Temp;Humidity;BMP_temperature;BMP_pressure;BME280_temperature;BME280_humidity;BME280_pressure;Samples;Min_cycle;Max_cycle;Signal;HPM_P1;HPM_P2
2023/04/07 00:01:22;;;;;;;15.48;10.65;;;;;;;8.72;73.64;100664.19;4117257;28;20126;-68
2023/04/07 00:03:25;;;;;;;15.82;11.40;;;;;;;8.73;73.70;100659.03;4117121;28;20370;-67
2023/04/07 00:05:28;;;;;;;14.32;9.95;;;;;;;8.76;73.47;100665.13;4120697;28;20031;-67
2023/04/07 00:07:32;;;;;;;15.23;10.38;;;;;;;8.74;73.53;100657.31;4138952;28;20030;-67
2023/04/07 00:09:46;;;;;;;17.02;10.70;;;;;;;8.71;73.72;100652.03;4115868;28;20039;-67
2023/04/07 00:11:50;;;;;;;11.38;8.68;;;;;;;8.70;73.69;100656.38;4121227;28;20130;-67
2023/04/07 00:13:53;;;;;;;14.40;10.48;;;;;;;8.69;74.03;100658.91;4130401;28;20039;-67
2023/04/07 00:15:58;;;;;;;12.48;8.80;;;;;;;8.69;73.98;100658.91;4118358;28;20047;-68
2023/04/07 00:18:01;;;;;;;13.32;10.77;;;;;;;8.71;73.88;100650.31;4117802;28;20043;-68
2023/04/07 00:20:04;;;;;;;14.57;10.07;;;;;;;8.69;73.79;100648.56;4112803;28;20505;-68
2023/04/07 00:22:07;;;;;;;13.05;10.32;;;;;;;8.63;73.73;100651.88;4111807;28;20085;-68
2023/04/07 00:24:11;;;;;;;13.13;9.52;;;;;;;8.59;73.83;100652.63;4112143;28;20293;-68
2023/04/07 00:26:18;;;;;;;12.80;10.63;;;;;;;8.57;73.66;100651.69;4112633;28;20556;-68
2023/04/07 00:28:20;;;;;;;15.98;10.35;;;;;;;8.59;73.91;100644.84;4112537;28;20382;-69
2023/04/07 00:30:23;;;;;;;13.55;10.55;;;;;;;8.59;74.04;100643.97;4128000;28;20044;-68
2023/04/07 00:32:26;;;;;;;14.98;11.02;;;;;;;8.60;74.24;100637.94;4127109;28;20184;-68
2023/04/07 00:34:29;;;;;;;13.32;10.93;;;;;;;8.60;73.72;100636.25;4115249;28;20043;-68
2023/04/07 00:36:32;;;;;;;14.05;10.85;;;;;;;8.58;74.22;100622.34;4115518;28;20109;-68
2023/04/07 00:38:35;;;;;;;13.57;10.52;;;;;;;8.54;74.20;100620.50;4130308;28;20050;-68
2023/04/07 00:40:39;;;;;;;14.60;9.98;;;;;;;8.56;73.92;100622.31;4115196;28;20382;-67
2023/04/07 00:42:42;;;;;;;12.75;10.45;;;;;;;8.55;74.01;100611.91;4129603;28;20516;-67
2023/04/07 00:44:45;;;;;;;12.70;10.27;;;;;;;8.58;73.92;100609.41;4127638;28;20076;-68
2023/04/07 00:46:48;;;;;;;10.98;8.68;;;;;;;8.59;73.87;100602.53;4115259;28;20364;-69
2023/04/07 00:48:51;;;;;;;14.15;10.25;;;;;;;8.55;73.94;100601.56;4129465;28;20038;-68
2023/04/07 00:50:54;;;;;;;15.57;10.65;;;;;;;8.52;73.86;100596.28;4114910;28;20046;-68
2023/04/07 00:52:57;;;;;;;12.70;9.48;;;;;;;8.55;74.04;100601.56;4118711;28;20469;-68
2023/04/07 00:55:00;;;;;;;11.90;8.00;;;;;;;8.52;73.67;100598.88;4129709;28;20102;-68
2023/04/07 00:57:04;;;;;;;10.98;8.55;;;;;;;8.51;73.84;100602.31;4127257;28;20508;-69
2023/04/07 00:59:07;;;;;;;11.43;8.77;;;;;;;8.49;73.66;100598.81;4129710;28;20049;-68
2023/04/07 01:01:21;;;;;;;11.40;9.20;;;;;;;8.49;73.89;100588.44;4114424;28;20077;-69
2023/04/07 01:03:30;;;;;;;13.70;10.68;;;;;;;8.49;73.96;100586.72;4127669;28;20038;-68
2023/04/07 01:05:42;;;;;;;12.05;9.73;;;;;;;8.50;74.22;100587.63;4123093;28;20042;-67
2023/04/07 01:07:55;;;;;;;11.25;9.07;;;;;;;8.46;74.19;100586.66;4130394;28;20038;-67
2023/04/07 01:10:03;;;;;;;15.77;10.27;;;;;;;8.50;74.07;100588.47;4127773;28;20492;-67
2023/04/07 01:12:22;;;;;;;10.43;8.52;;;;;;;8.49;73.92;100583.25;4127698;28;20100;-67
2023/04/07 01:14:32;;;;;;;15.85;10.65;;;;;;;8.51;74.09;100584.16;4129894;28;20073;-68
2023/04/07 01:16:47;;;;;;;13.05;10.35;;;;;;;8.47;74.45;100578.06;4119149;28;20050;-66
2023/04/07 01:18:54;;;;;;;12.70;10.55;;;;;;;8.51;74.39;100571.22;4114759;28;20042;-67
2023/04/07 01:21:04;;;;;;;14.60;10.93;;;;;;;8.54;74.01;100579.06;4117154;28;20155;-68
2023/04/07 01:23:08;;;;;;;13.68;10.75;;;;;;;8.52;74.43;100571.25;4124390;28;20041;-68
2023/04/07 01:25:29;;;;;;;13.25;11.02;;;;;;;8.57;74.04;100571.34;4114680;28;20404;-67
2023/04/07 01:27:42;;;;;;;17.27;11.50;;;;;;;8.54;74.36;100558.31;4122769;28;20184;-66
2023/04/07 01:29:49;;;;;;;14.95;10.88;;;;;;;8.49;74.00;100559.94;4113483;28;20038;-66
2023/04/07 01:31:55;;;;;;;14.07;11.40;;;;;;;8.47;74.49;100557.31;4127425;28;20038;-67
2023/04/07 01:34:00;;;;;;;12.07;9.60;;;;;;;8.45;74.82;100563.31;4135583;28;20049;-68
2023/04/07 01:36:04;;;;;;;12.45;8.95;;;;;;;8.45;74.22;100558.97;4124178;28;20046;-67
2023/04/07 01:38:07;;;;;;;15.13;10.57;;;;;;;8.45;74.29;100552.94;4114408;28;20046;-67
2023/04/07 01:40:12;;;;;;;13.40;10.55;;;;;;;8.44;74.36;100559.84;4113942;28;20138;-68
2023/04/07 01:42:18;;;;;;;10.73;8.85;;;;;;;8.47;74.33;100556.44;4130041;28;20124;-68
2023/04/07 01:44:22;;;;;;;14.15;9.63;;;;;;;8.38;74.87;100554.44;4119210;28;20042;-68
2023/04/07 01:46:27;;;;;;;16.35;10.60;;;;;;;8.33;74.78;100558.66;4120268;28;20034;-68
2023/04/07 01:48:30;;;;;;;14.10;11.18;;;;;;;8.34;75.10;100555.25;4124255;28;20432;-68
2023/04/07 01:50:34;;;;;;;13.07;10.27;;;;;;;8.37;74.72;100548.41;4125635;28;20049;-68
2023/04/07 01:52:38;;;;;;;12.98;10.00;;;;;;;8.39;74.87;100557.06;4137338;28;20467;-68
2023/04/07 01:54:41;;;;;;;12.65;10.02;;;;;;;8.39;74.79;100554.50;4115696;28;20448;-68
2023/04/07 01:56:44;;;;;;;12.57;9.95;;;;;;;8.41;74.65;100551.97;4131148;28;20122;-67
2023/04/07 01:58:47;;;;;;;13.77;11.05;;;;;;;8.37;74.75;100551.00;4138242;28;20542;-69
2023/04/07 02:00:52;;;;;;;10.52;8.45;;;;;;;8.38;74.92;100547.56;4125197;28;20093;-69
2023/04/07 02:03:02;;;;;;;;;;;;;;;8.29;75.44;100552.50;4126213;28;20062;-68
2023/04/07 02:05:10;;;;;;;13.75;10.10;;;;;;;8.26;75.40;100549.84;4115305;28;19922;-68
2023/04/07 02:07:19;;;;;;;13.25;10.27;;;;;;;8.29;74.84;100539.56;4131028;28;20038;-68
2023/04/07 02:09:27;;;;;;;13.25;10.07;;;;;;;8.31;75.35;100544.78;4121576;28;20134;-69
2023/04/07 02:11:33;;;;;;;16.90;11.27;;;;;;;8.33;74.76;100531.03;4125076;28;20086;-69
2023/04/07 02:13:39;;;;;;;15.48;11.48;;;;;;;8.33;74.91;100537.94;4144380;28;20076;-69
2023/04/07 02:15:46;;;;;;;13.10;10.75;;;;;;;8.33;74.88;100535.34;4130984;28;20046;-69
2023/04/07 02:17:53;;;;;;;12.90;10.25;;;;;;;8.31;74.75;100534.41;4116938;28;20070;-68
2023/04/07 02:19:59;;;;;;;13.27;9.90;;;;;;;8.36;74.36;100532.81;4120539;28;20041;-69
2023/04/07 02:22:03;;;;;;;16.05;10.30;;;;;;;8.34;74.70;100537.09;4121377;28;20050;-68
2023/04/07 02:24:07;;;;;;;14.90;10.38;;;;;;;8.32;74.69;100531.00;4118091;28;20042;-68
2023/04/07 02:26:10;;;;;;;15.00;11.68;;;;;;;8.29;74.51;100530.94;4140843;28;20030;-68
2023/04/07 02:28:13;;;;;;;14.55;10.45;;;;;;;8.32;74.80;100526.72;4115612;28;20469;-68
2023/04/07 02:30:16;;;;;;;14.95;11.82;;;;;;;8.36;74.50;100523.34;4118482;28;20070;-68
2023/04/07 02:32:19;;;;;;;13.65;10.75;;;;;;;8.33;74.52;100525.84;4121380;28;20125;-67
2023/04/07 02:34:22;;;;;;;14.23;10.77;;;;;;;8.31;74.69;100530.13;4141004;28;20042;-68
2023/04/07 02:36:26;;;;;;;14.30;11.57;;;;;;;8.30;74.81;100530.09;4120641;28;20109;-68
2023/04/07 02:38:29;;;;;;;14.45;10.27;;;;;;;8.27;75.01;100532.63;4131632;28;20042;-68
2023/04/07 02:40:32;;;;;;;15.65;9.98;;;;;;;8.24;74.87;100533.41;4133130;28;20046;-68
2023/04/07 02:42:36;;;;;;;13.02;10.60;;;;;;;8.21;74.69;100528.16;4119607;28;20082;-68
2023/04/07 02:44:42;;;;;;;14.60;10.65;;;;;;;8.23;74.55;100525.59;4114041;28;21302;-68
2023/04/07 02:46:45;;;;;;;15.27;11.05;;;;;;;8.29;74.65;100517.97;4141980;28;20057;-69
2023/04/07 02:48:48;;;;;;;15.10;11.18;;;;;;;8.26;74.52;100526.53;4143783;28;20038;-69
2023/04/07 02:50:50;;;;;;;13.77;11.63;;;;;;;8.24;74.24;100525.63;4115171;28;20035;-68
2023/04/07 02:52:57;;;;;;;13.15;11.02;;;;;;;8.26;74.16;100526.53;4111955;28;20038;-68
2023/04/07 02:55:00;;;;;;;14.73;10.57;;;;;;;8.16;74.66;100515.09;4135092;28;20058;-69
2023/04/07 02:57:04;;;;;;;15.23;10.73;;;;;;;8.15;74.27;100518.50;4137193;28;20300;-68
2023/04/07 02:59:07;;;;;;;14.13;10.43;;;;;;;8.12;74.74;100526.22;4140398;28;20065;-68
2023/04/07 03:01:15;;;;;;;16.08;11.88;;;;;;;8.08;74.80;100521.78;4126842;28;20052;-68
2023/04/07 03:03:18;;;;;;;13.52;10.23;;;;;;;8.09;74.46;100513.19;4116221;28;20069;-68
2023/04/07 03:05:43;;;;;;;;;;;;;;;7.99;74.71;100512.06;4116990;28;20047;-68
2023/04/07 03:07:46;;;;;;;14.05;10.82;;;;;;;8.01;74.83;100515.56;4118627;28;20430;-69
2023/04/07 03:09:51;;;;;;;13.88;11.55;;;;;;;8.01;74.71;100510.38;4121174;28;20496;-68
2023/04/07 03:11:54;;;;;;;14.93;11.15;;;;;;;8.03;74.65;100507.84;4140286;28;20040;-68
2023/04/07 03:13:57;;;;;;;15.98;11.40;;;;;;;8.02;74.43;100501.78;4142251;28;20065;-68
2023/04/07 03:16:02;;;;;;;15.75;11.48;;;;;;;8.02;74.40;100508.69;4118675;28;20042;-68
2023/04/07 03:18:11;;;;;;;16.75;11.77;;;;;;;8.01;74.29;100506.94;4115760;28;20068;-68
2023/04/07 03:20:16;;;;;;;;;;;;;;;7.92;74.80;100504.97;4134995;28;20057;-69
2023/04/07 03:22:18;;;;;;;14.80;10.98;;;;;;;7.93;74.47;100498.09;4119480;28;20383;-68
2023/04/07 03:24:25;;;;;;;15.32;12.30;;;;;;;7.97;74.13;100494.75;4138310;28;20128;-68
2023/04/07 03:26:30;;;;;;;15.57;12.82;;;;;;;8.00;74.35;100502.59;4142411;28;20041;-68
2023/04/07 03:28:33;;;;;;;14.52;11.70;;;;;;;7.99;74.08;100486.19;4114009;28;20042;-68
2023/04/07 03:30:37;;;;;;;16.33;12.05;;;;;;;7.98;73.95;100481.84;4130226;28;20244;-67
2023/04/07 03:32:40;;;;;;;16.92;11.70;;;;;;;7.99;74.02;100491.38;4113164;28;20035;-68
2023/04/07 03:34:44;;;;;;;14.23;10.43;;;;;;;7.97;74.03;100493.06;4113031;28;20047;-67
2023/04/07 03:36:48;;;;;;;14.32;10.60;;;;;;;7.93;74.71;100500.66;4121442;28;20037;-68
2023/04/07 03:38:51;;;;;;;13.48;10.07;;;;;;;7.94;74.76;100495.53;4112865;28;20054;-68
2023/04/07 03:40:54;;;;;;;13.40;10.75;;;;;;;7.98;74.74;100489.59;4111948;28;20039;-68
2023/04/07 03:42:58;;;;;;;14.32;12.05;;;;;;;8.00;74.37;100497.41;4112540;28;20054;-68
2023/04/07 03:45:01;;;;;;;16.48;11.40;;;;;;;7.99;74.79;100501.72;4112189;28;20122;-68
2023/04/07 03:47:07;;;;;;;15.18;10.30;;;;;;;8.00;74.97;100495.72;4119074;28;20093;-68
2023/04/07 03:49:11;;;;;;;13.63;11.43;;;;;;;8.02;74.82;100500.94;4134631;28;20562;-68
2023/04/07 03:51:15;;;;;;;13.43;10.18;;;;;;;8.04;74.47;100492.38;4139585;28;20050;-68
2023/04/07 03:53:19;;;;;;;;;;;;;;;7.99;75.19;100488.78;4124649;28;20046;-68
2023/04/07 03:55:22;;;;;;;13.07;11.05;;;;;;;7.99;75.00;100496.53;4131776;28;19926;-67
2023/04/07 03:57:29;;;;;;;16.23;10.88;;;;;;;8.03;74.65;100497.47;4130969;28;20388;-67
2023/04/07 03:59:33;;;;;;;12.80;9.63;;;;;;;8.06;74.95;100504.44;4133097;28;20042;-68
2023/04/07 04:01:39;;;;;;;14.63;11.70;;;;;;;8.07;75.00;100501.91;4136987;28;20091;-68
2023/04/07 04:03:47;;;;;;;15.13;11.80;;;;;;;8.10;74.50;100494.22;4113772;28;20700;-68
2023/04/07 04:05:58;;;;;;;12.77;9.35;;;;;;;8.12;74.84;100507.19;4121783;28;20054;-67
2023/04/07 04:08:05;;;;;;;15.98;10.77;;;;;;;8.12;74.98;100502.00;4118494;28;20520;-67
2023/04/07 04:10:11;;;;;;;13.52;10.25;;;;;;;8.14;74.96;100508.13;4134680;28;20042;-67
2023/04/07 04:12:18;;;;;;;13.43;10.70;;;;;;;8.15;74.77;100505.56;4120588;28;20038;-68
2023/04/07 04:14:35;;;;;;;15.90;11.63;;;;;;;8.16;74.82;100504.75;4123852;28;20035;-67
2023/04/07 04:16:40;;;;;;;13.68;10.77;;;;;;;8.17;74.65;100503.88;4142714;28;20046;-67
2023/04/07 04:18:57;;;;;;;14.45;9.65;;;;;;;8.15;74.48;100504.69;4124720;28;20405;-67
2023/04/07 04:21:01;;;;;;;14.07;9.95;;;;;;;8.13;74.53;100508.94;4137220;28;21087;-67
2023/04/07 04:23:05;;;;;;;12.43;10.27;;;;;;;8.10;74.65;100503.69;4117626;28;20497;-67
2023/04/07 04:25:10;;;;;;;13.85;9.48;;;;;;;8.11;74.53;100508.06;4121066;28;20081;-67
2023/04/07 04:27:14;;;;;;;15.50;11.20;;;;;;;8.10;74.61;100514.06;4124094;28;20030;-68
2023/04/07 04:29:18;;;;;;;;;;;;;;;8.01;74.80;100515.56;4126320;28;20049;-67
2023/04/07 04:31:22;;;;;;;18.40;11.98;;;;;;;8.01;74.87;100505.22;4143818;28;20000;-67
2023/04/07 04:33:25;;;;;;;16.30;10.10;;;;;;;8.03;74.64;100508.72;4122856;28;20035;-67
2023/04/07 04:35:30;;;;;;;16.13;12.15;;;;;;;8.04;74.73;100507.91;4117100;28;20038;-68
2023/04/07 04:37:43;;;;;;;14.43;10.85;;;;;;;8.03;74.59;100507.84;4118084;28;20066;-67
2023/04/07 04:39:48;;;;;;;16.05;10.35;;;;;;;8.00;74.86;100500.88;4123354;28;20038;-67
2023/04/07 04:41:55;;;;;;;12.98;10.23;;;;;;;7.94;74.78;100513.66;4126686;28;20117;-67
2023/04/07 04:44:05;;;;;;;16.00;10.95;;;;;;;7.93;75.17;100504.16;4126395;28;20038;-68
2023/04/07 04:46:08;;;;;;;11.52;9.55;;;;;;;7.91;74.94;100507.53;4116876;28;20531;-68
2023/04/07 04:48:17;;;;;;;15.70;12.57;;;;;;;7.91;75.05;100508.41;4136211;28;20492;-68
2023/04/07 04:50:20;;;;;;;15.00;11.45;;;;;;;7.93;75.33;100511.94;4139396;28;20492;-68
2023/04/07 04:52:23;;;;;;;14.32;11.45;;;;;;;7.94;75.41;100513.66;4125982;28;20038;-68
2023/04/07 04:54:26;;;;;;;14.85;10.20;;;;;;;7.97;75.03;100507.69;4125767;28;20459;-68
2023/04/07 04:56:29;;;;;;;13.93;10.40;;;;;;;7.98;75.19;100505.13;4132844;28;20096;-68
2023/04/07 04:58:32;;;;;;;14.20;11.07;;;;;;;8.01;74.85;100514.69;4118255;28;20035;-67
2023/04/07 05:00:35;;;;;;;14.40;11.68;;;;;;;8.03;74.67;100511.31;4121475;28;20098;-67
2023/04/07 05:02:41;;;;;;;14.30;11.20;;;;;;;8.06;74.56;100512.22;4124152;28;20567;-68
2023/04/07 05:04:46;;;;;;;13.67;11.37;;;;;;;8.11;74.53;100515.81;4108996;28;20038;-68
2023/04/07 05:07:08;;;;;;;13.75;10.85;;;;;;;8.16;74.05;100516.78;4133103;28;20048;-68
2023/04/07 05:09:11;;;;;;;16.05;11.20;;;;;;;8.13;74.25;100514.13;4122274;28;20140;-68
2023/04/07 05:11:18;;;;;;;15.02;12.43;;;;;;;8.15;74.22;100512.47;4134475;28;20044;-68
2023/04/07 05:13:25;;;;;;;17.58;11.23;;;;;;;8.17;74.37;100503.88;4123601;28;20640;-68
2023/04/07 05:15:29;;;;;;;14.23;11.95;;;;;;;8.19;73.76;100503.91;4127883;28;20054;-68
2023/04/07 05:17:32;;;;;;;12.53;9.63;;;;;;;8.16;74.23;100509.91;4138866;28;20045;-68
2023/04/07 05:19:36;;;;;;;14.23;12.43;;;;;;;8.15;74.62;100507.28;4115798;28;20043;-68
2023/04/07 05:21:48;;;;;;;15.40;11.43;;;;;;;8.15;74.38;100502.13;4119370;28;20043;-68
2023/04/07 05:23:53;;;;;;;13.75;10.50;;;;;;;8.14;74.44;100502.94;4122294;28;20085;-68
2023/04/07 05:25:58;;;;;;;16.08;12.25;;;;;;;8.15;74.75;100499.53;4142085;28;20034;-68
2023/04/07 05:28:01;;;;;;;15.32;11.52;;;;;;;8.14;74.45;100500.34;4113618;28;20039;-68
2023/04/07 05:30:04;;;;;;;15.27;12.07;;;;;;;8.17;74.62;100500.44;4131216;22;20026;-62
2023/04/07 05:32:09;;;;;;;14.52;11.45;;;;;;;8.14;74.44;100495.19;4134887;28;20480;-62
2023/04/07 05:34:12;;;;;;;16.00;11.23;;;;;;;8.21;74.05;100499.66;4140157;28;20049;-62
2023/04/07 05:36:20;;;;;;;15.15;11.65;;;;;;;8.13;74.59;100494.31;4141669;28;20470;-62
2023/04/07 05:38:28;;;;;;;15.35;12.35;;;;;;;8.17;74.28;100490.06;4127239;28;20053;-62
2023/04/07 05:40:34;;;;;;;15.13;11.40;;;;;;;8.15;74.67;100496.94;4123965;28;20070;-61
2023/04/07 05:42:41;;;;;;;15.02;12.65;;;;;;;8.18;74.57;100491.81;4111609;28;20043;-62
2023/04/07 05:44:44;;;;;;;14.20;10.82;;;;;;;8.19;74.41;100488.38;4115231;28;20066;-62
2023/04/07 05:46:47;;;;;;;16.08;12.35;;;;;;;8.19;74.60;100488.38;4123809;28;20035;-62
2023/04/07 05:48:51;;;;;;;13.77;10.10;;;;;;;8.23;74.69;100492.81;4126373;28;20037;-62
2023/04/07 05:50:56;;;;;;;13.80;11.23;;;;;;;8.20;74.59;100500.50;4095378;28;20047;-62
2023/04/07 05:52:58;;;;;;;15.57;11.65;;;;;;;8.21;74.60;100497.94;4109752;28;20066;-62
2023/04/07 05:55:05;;;;;;;15.90;11.02;;;;;;;8.24;74.73;100497.16;4116853;28;20126;-63
2023/04/07 05:57:08;;;;;;;15.48;12.30;;;;;;;8.23;74.88;100495.38;4116717;28;20042;-62
2023/04/07 05:59:13;;;;;;;13.82;10.18;;;;;;;8.22;75.05;100498.84;4119089;28;20039;-62
2023/04/07 06:01:16;;;;;;;13.10;10.55;;;;;;;8.20;75.12;100503.94;4115618;28;20118;-62
2023/04/07 06:03:19;;;;;;;15.82;12.40;;;;;;;8.26;75.24;100511.00;4110546;28;20552;-62
2023/04/07 06:05:42;;;;;;;14.35;10.82;;;;;;;8.31;74.80;100518.88;4099483;28;20440;-62
2023/04/07 06:07:46;;;;;;;13.52;10.68;;;;;;;8.34;74.51;100519.84;4117133;28;20038;-62
2023/04/07 06:09:49;;;;;;;14.95;11.98;;;;;;;8.35;74.68;100511.25;4116850;28;20045;-62
2023/04/07 06:11:53;;;;;;;13.88;9.93;;;;;;;8.38;74.65;100513.91;4123919;28;20042;-63
2023/04/07 06:13:56;;;;;;;15.35;10.30;;;;;;;8.44;75.10;100520.97;4118212;28;20587;-62
2023/04/07 06:15:59;;;;;;;14.75;10.98;;;;;;;8.49;75.17;100523.69;4141517;28;20045;-62
2023/04/07 06:18:02;;;;;;;14.95;11.48;;;;;;;8.50;75.29;100515.94;4122069;28;20410;-62
2023/04/07 06:20:07;;;;;;;13.00;10.07;;;;;;;8.58;74.66;100523.88;4122653;28;20058;-62
2023/04/07 06:22:09;;;;;;;16.75;12.05;;;;;;;8.53;74.53;100523.78;4126790;28;20057;-63
2023/04/07 06:24:14;;;;;;;15.43;11.68;;;;;;;8.62;74.53;100519.66;4122660;28;20046;-63
2023/04/07 06:26:18;;;;;;;13.87;10.60;;;;;;;8.67;74.12;100516.34;4105765;28;20497;-63
2023/04/07 06:28:22;;;;;;;17.73;12.10;;;;;;;8.68;74.17;100514.63;4122223;28;20297;-63
2023/04/07 06:30:25;;;;;;;13.75;10.80;;;;;;;8.68;74.19;100510.28;4099071;28;20051;-63
2023/04/07 06:32:28;;;;;;;13.65;10.98;;;;;;;8.68;74.38;100507.69;4119862;28;20038;-63
2023/04/07 06:34:32;;;;;;;13.25;10.82;;;;;;;8.70;74.04;100511.22;4118818;28;20070;-63
2023/04/07 06:36:35;;;;;;;13.60;10.38;;;;;;;8.74;74.22;100518.19;4137308;28;20040;-63
2023/04/07 06:38:38;;;;;;;13.20;10.10;;;;;;;8.71;74.29;100512.09;4095255;28;20047;-66
2023/04/07 06:40:41;;;;;;;14.68;11.15;;;;;;;8.70;74.02;100511.22;4119748;28;20090;-66
2023/04/07 06:42:44;;;;;;;15.20;10.35;;;;;;;8.72;74.19;100514.72;4135608;28;20038;-66
2023/04/07 06:44:59;;;;;;;15.48;11.32;;;;;;;8.76;74.14;100513.09;4124734;28;20035;-66
2023/04/07 06:47:02;;;;;;;15.20;10.00;;;;;;;8.83;74.43;100519.25;4131810;28;20455;-66
2023/04/07 06:49:05;;;;;;;14.07;11.15;;;;;;;8.89;74.17;100514.19;4131675;28;20038;-66
2023/04/07 06:51:08;;;;;;;14.93;11.63;;;;;;;8.94;74.24;100517.78;4130419;28;20548;-66
2023/04/07 06:53:11;;;;;;;13.85;10.85;;;;;;;9.03;73.57;100522.28;4131152;28;20042;-66
2023/04/07 06:55:14;;;;;;;14.32;10.57;;;;;;;9.03;73.30;100517.97;4146790;28;20066;-66
2023/04/07 06:57:17;;;;;;;14.65;11.00;;;;;;;9.12;73.18;100513.84;4131723;28;20064;-66
2023/04/07 06:59:20;;;;;;;12.73;9.48;;;;;;;9.17;73.12;100512.19;4114234;28;20050;-66
2023/04/07 07:01:24;;;;;;;13.98;11.18;;;;;;;9.24;72.86;100517.56;4131604;28;20044;-66
2023/04/07 07:03:28;;;;;;;13.52;9.27;;;;;;;9.22;72.89;100513.19;4131024;28;20561;-66
2023/04/07 07:05:32;;;;;;;15.57;12.27;;;;;;;9.29;73.00;100525.44;4131555;28;20133;-66
2023/04/07 07:07:34;;;;;;;12.15;9.77;;;;;;;9.29;72.50;100517.66;4131555;28;20105;-66
2023/04/07 07:09:37;;;;;;;12.40;9.38;;;;;;;9.33;72.57;100514.28;4131776;28;20084;-66
2023/04/07 07:11:40;;;;;;;12.02;8.98;;;;;;;9.39;71.85;100516.13;4131583;28;20138;-66
2023/04/07 07:13:43;;;;;;;15.88;11.35;;;;;;;9.49;71.80;100514.56;4130888;28;20045;-66
2023/04/07 07:15:46;;;;;;;11.60;9.30;;;;;;;9.43;71.77;100521.41;4130195;28;20343;-66
2023/04/07 07:17:50;;;;;;;14.95;10.00;;;;;;;9.49;71.80;100517.16;4130154;28;20516;-66
2023/04/07 07:19:53;;;;;;;13.30;10.65;;;;;;;9.48;70.93;100512.84;4130058;28;20121;-66
2023/04/07 07:21:56;;;;;;;12.73;9.95;;;;;;;9.49;71.09;100518.06;4131331;28;20060;-66
2023/04/07 07:23:59;;;;;;;12.60;9.10;;;;;;;9.57;71.45;100518.19;4129618;28;20038;-66
2023/04/07 07:26:03;;;;;;;14.25;9.40;;;;;;;9.65;71.52;100510.53;4131382;28;20073;-66
2023/04/07 07:28:07;;;;;;;9.60;7.78;;;;;;;9.66;71.71;100500.19;4130158;28;20142;-66
2023/04/07 07:30:11;;;;;;;10.45;8.00;;;;;;;9.72;70.71;100500.28;4131123;28;20034;-66
2023/04/07 07:32:14;;;;;;;11.75;8.90;;;;;;;9.74;70.73;100502.94;4130711;28;20138;-66
2023/04/07 07:34:18;;;;;;;10.77;8.25;;;;;;;9.78;71.11;100507.31;4130129;28;20064;-66
2023/04/07 07:36:21;;;;;;;13.48;9.18;;;;;;;9.79;70.63;100506.50;4131283;28;20081;-66
2023/04/07 07:38:26;;;;;;;13.50;8.23;;;;;;;9.83;70.63;100510.00;4131270;28;20045;-66
2023/04/07 07:40:29;;;;;;;11.35;8.73;;;;;;;9.93;70.72;100506.75;4113795;28;20054;-66
2023/04/07 07:42:32;;;;;;;11.38;8.25;;;;;;;9.88;70.16;100508.38;4132209;28;20069;-66
2023/04/07 07:44:35;;;;;;;10.70;8.63;;;;;;;9.89;70.04;100508.41;4117337;28;20125;-66
2023/04/07 07:46:37;;;;;;;10.95;8.50;;;;;;;9.94;70.11;100511.97;4117295;28;20054;-66
2023/04/07 07:48:40;;;;;;;13.35;8.63;;;;;;;10.00;69.92;100513.75;4133429;28;20042;-66
2023/04/07 07:50:45;;;;;;;10.38;7.53;;;;;;;10.01;70.04;100518.13;4117133;28;20524;-66
2023/04/07 07:52:48;;;;;;;11.73;8.60;;;;;;;10.04;69.25;100518.19;4132727;28;20141;-66
2023/04/07 07:54:51;;;;;;;10.75;7.80;;;;;;;10.10;69.30;100514.81;4134591;28;20097;-66
2023/04/07 07:56:54;;;;;;;10.95;8.35;;;;;;;10.16;68.96;100517.50;4133318;28;20042;-66
2023/04/07 07:58:57;;;;;;;9.65;7.05;;;;;;;10.29;68.92;100508.19;4134528;28;20058;-66
2023/04/07 08:01:00;;;;;;;13.32;8.30;;;;;;;10.24;68.74;100515.91;4134396;28;20546;-66
2023/04/07 08:03:03;;;;;;;11.73;9.18;;;;;;;10.18;68.68;100515.81;4132641;28;20042;-65
2023/04/07 08:05:07;;;;;;;12.68;8.02;;;;;;;10.25;69.25;100519.38;4149455;28;20064;-66
2023/04/07 08:07:11;;;;;;;12.77;7.80;;;;;;;10.37;68.64;100517.03;4133184;28;20488;-66
2023/04/07 08:09:14;;;;;;;11.85;7.85;;;;;;;10.52;68.75;100521.59;4149446;28;20073;-66
2023/04/07 08:11:18;;;;;;;10.70;7.85;;;;;;;10.71;68.65;100516.69;4134303;28;20212;-65
2023/04/07 08:13:20;;;;;;;11.88;7.32;;;;;;;10.96;67.62;100523.94;4133736;28;20448;-66
2023/04/07 08:15:23;;;;;;;9.80;7.47;;;;;;;11.05;68.08;100522.34;4134281;28;20484;-66
2023/04/07 08:17:26;;;;;;;11.43;7.28;;;;;;;11.16;68.12;100521.63;4134101;28;20092;-65
2023/04/07 08:19:29;;;;;;;9.70;7.00;;;;;;;11.22;66.80;100533.84;4134193;28;20448;-66
2023/04/07 08:21:32;;;;;;;10.38;7.15;;;;;;;11.34;66.72;100533.97;4134165;28;20043;-66
2023/04/07 08:23:36;;;;;;;10.90;6.85;;;;;;;11.26;65.78;100532.16;4133533;28;20050;-65
2023/04/07 08:25:39;;;;;;;13.05;7.63;;;;;;;11.22;65.43;100536.44;4134192;28;20042;-66
2023/04/07 08:27:42;;;;;;;12.35;7.05;;;;;;;11.33;65.26;100536.56;4132955;28;20038;-66
2023/04/07 08:29:45;;;;;;;14.63;9.13;;;;;;;11.56;63.96;100528.16;4133952;28;20407;-65
2023/04/07 08:31:48;;;;;;;11.20;7.28;;;;;;;11.59;64.11;100534.25;4116498;28;20058;-65
2023/04/07 08:33:53;;;;;;;9.45;6.45;;;;;;;11.62;64.76;100542.13;4133549;28;20054;-66
2023/04/07 08:35:56;;;;;;;13.43;7.18;;;;;;;11.72;64.94;100531.81;4134068;28;20456;-66
2023/04/07 08:37:59;;;;;;;10.75;7.28;;;;;;;11.81;64.04;100535.41;4133907;28;20129;-65
2023/04/07 08:40:04;;;;;;;10.88;6.93;;;;;;;11.84;64.14;100530.22;4134017;28;20038;-66
2023/04/07 08:42:08;;;;;;;12.55;8.05;;;;;;;11.94;64.31;100532.94;4133590;28;20097;-66
2023/04/07 08:44:12;;;;;;;12.85;8.10;;;;;;;12.09;64.33;100534.81;4132492;28;20141;-65
2023/04/07 08:46:18;;;;;;;12.27;8.15;;;;;;;12.09;63.47;100538.31;4132595;28;20038;-66
2023/04/07 08:48:25;;;;;;;12.88;8.90;;;;;;;12.23;63.48;100538.41;4133775;28;20133;-66
2023/04/07 08:50:28;;;;;;;14.30;8.63;;;;;;;12.34;61.12;100538.50;4133742;28;20062;-66
2023/04/07 08:52:35;;;;;;;13.07;8.43;;;;;;;12.22;61.35;100545.38;4131899;28;20140;-66
2023/04/07 08:54:38;;;;;;;13.40;8.27;;;;;;;12.28;61.83;100547.16;4132994;28;20089;-66
2023/04/07 08:56:43;;;;;;;12.18;8.75;;;;;;;12.18;61.26;100556.63;4133684;28;20050;-66
2023/04/07 08:58:47;;;;;;;11.30;6.90;;;;;;;12.07;61.71;100552.16;4132617;28;20077;-66
2023/04/07 09:00:51;;;;;;;10.70;6.28;;;;;;;11.95;62.84;100547.72;4133459;28;20057;-66
2023/04/07 09:02:55;;;;;;;10.95;7.18;;;;;;;11.85;63.27;100550.16;4133141;28;20085;-65
2023/04/07 09:04:58;;;;;;;10.68;7.10;;;;;;;11.80;63.64;100545.78;4133527;28;20042;-65
2023/04/07 09:07:01;;;;;;;12.32;6.45;;;;;;;11.85;62.84;100549.31;4132301;28;20050;-66
2023/04/07 09:09:05;;;;;;;9.90;5.88;;;;;;;11.84;63.05;100545.84;4133463;28;20042;-65
2023/04/07 09:11:08;;;;;;;7.25;5.07;;;;;;;11.86;63.54;100557.13;4132233;28;20042;-65
2023/04/07 09:13:12;;;;;;;7.30;4.35;;;;;;;11.87;62.81;100553.69;4131415;28;20042;-65
2023/04/07 09:15:15;;;;;;;8.30;5.57;;;;;;;11.91;62.75;100554.56;4133310;28;20042;-65
2023/04/07 09:17:18;;;;;;;9.57;5.95;;;;;;;12.10;62.79;100560.88;4133376;28;20034;-65
2023/04/07 09:19:21;;;;;;;8.23;5.65;;;;;;;12.33;62.20;100558.47;4132136;28;20038;-66
2023/04/07 09:21:24;;;;;;;9.75;5.85;;;;;;;12.50;61.50;100561.25;4133087;28;20097;-65
2023/04/07 09:23:29;;;;;;;9.32;5.78;;;;;;;12.79;60.26;100550.16;4131432;28;20064;-66
2023/04/07 09:25:32;;;;;;;8.80;6.00;;;;;;;12.92;59.74;100549.34;4133160;28;20042;-66
2023/04/07 09:27:35;;;;;;;7.50;5.10;;;;;;;12.90;59.20;100551.06;4133253;28;20492;-65
2023/04/07 09:29:41;;;;;;;7.65;5.38;;;;;;;12.78;58.56;100551.00;4131839;28;20062;-65
2023/04/07 09:31:45;;;;;;;8.25;5.22;;;;;;;12.40;60.07;100559.41;4133004;28;20433;-66
2023/04/07 09:33:49;;;;;;;6.88;4.38;;;;;;;12.21;60.45;100559.25;4132487;28;20045;-65
2023/04/07 09:35:53;;;;;;;7.25;4.70;;;;;;;12.01;61.65;100563.41;4133274;28;20038;-66
2023/04/07 09:38:03;;;;;;;5.40;3.88;;;;;;;11.96;62.08;100557.25;4132976;28;20137;-65